createdAt,value
2023-11-23T00:01:21.219Z,-23.17
2023-11-23T00:03:49.796Z,-23.26
2023-11-23T00:06:18.243Z,-23.37
2023-11-23T00:08:46.926Z,-23.42
2023-11-23T00:11:15.383Z,-23.40
2023-11-23T00:13:44.127Z,-23.34
2023-11-23T00:16:12.513Z,-23.37
2023-11-23T00:18:41.144Z,-23.35
2023-11-23T00:21:09.691Z,-23.30
2023-11-23T00:23:38.111Z,-23.25
2023-11-23T00:26:07.384Z,-23.24
2023-11-23T00:28:36.707Z,-23.22
2023-11-23T00:31:05.095Z,-23.21
2023-11-23T00:33:34.305Z,-23.16
2023-11-23T00:36:04.605Z,-23.05
2023-11-23T00:38:33.088Z,-23.02
2023-11-23T00:41:02.475Z,-22.99
2023-11-23T00:43:30.843Z,-22.93
2023-11-23T00:45:59.711Z,-22.91
2023-11-23T00:48:29.421Z,-22.85
2023-11-23T00:50:57.904Z,-22.75
2023-11-23T00:53:26.492Z,-22.70
2023-11-23T00:55:59.768Z,-22.71
2023-11-23T00:58:28.261Z,-22.70
2023-11-23T01:00:58.725Z,-22.64
2023-11-23T01:03:28.351Z,-22.55
2023-11-23T01:05:58.001Z,-22.49
2023-11-23T01:08:26.555Z,-22.50
2023-11-23T01:10:55.008Z,-22.49
2023-11-23T01:13:23.442Z,-22.44
2023-11-23T01:15:51.853Z,-22.41
2023-11-23T01:18:21.691Z,-22.41
2023-11-23T01:20:50.596Z,-22.40
2023-11-23T01:23:19.115Z,-22.35
2023-11-23T01:25:47.582Z,-22.32
2023-11-23T01:28:16.131Z,-22.22
2023-11-23T01:30:44.964Z,-22.10
2023-11-23T01:33:13.830Z,-21.98
2023-11-23T01:35:42.310Z,-21.88
2023-11-23T01:38:10.935Z,-21.82
2023-11-23T01:40:39.604Z,-21.75
2023-11-23T01:43:11.726Z,-21.70
2023-11-23T01:45:40.293Z,-21.63
2023-11-23T01:48:08.992Z,-21.49
2023-11-23T01:50:39.354Z,-20.83
2023-11-23T01:53:09.732Z,-19.27
2023-11-23T01:55:38.356Z,-17.78
2023-11-23T01:58:08.459Z,-16.39
2023-11-23T02:00:38.937Z,-15.54
2023-11-23T02:03:08.194Z,-15.91
2023-11-23T02:05:36.809Z,-16.79
2023-11-23T02:08:06.715Z,-17.47
2023-11-23T02:10:35.383Z,-17.45
2023-11-23T02:13:04.838Z,-16.61
2023-11-23T02:15:38.767Z,-15.53
2023-11-23T02:18:12.228Z,-14.16
2023-11-23T02:20:43.698Z,-12.92
2023-11-23T02:23:12.126Z,-11.90
2023-11-23T02:25:40.673Z,-10.94
2023-11-23T02:28:10.107Z,-10.19
2023-11-23T02:30:38.467Z,-9.61
2023-11-23T02:33:10.161Z,-9.12
2023-11-23T02:35:39.762Z,-8.58
2023-11-23T02:38:08.442Z,-8.15
2023-11-23T02:40:37.009Z,-7.74
2023-11-23T02:43:07.149Z,-7.42
2023-11-23T02:45:37.745Z,-7.47
2023-11-23T02:48:06.611Z,-9.26
2023-11-23T02:50:35.578Z,-11.83
2023-11-23T02:53:05.783Z,-13.88
2023-11-23T02:55:34.134Z,-15.37
2023-11-23T02:58:02.562Z,-16.36
2023-11-23T03:00:32.180Z,-17.09
2023-11-23T03:03:01.122Z,-17.54
2023-11-23T03:05:29.588Z,-17.87
2023-11-23T03:07:58.326Z,-18.10
2023-11-23T03:10:26.739Z,-18.29
2023-11-23T03:12:55.173Z,-18.53
2023-11-23T03:15:24.074Z,-18.73
2023-11-23T03:17:54.357Z,-18.81
2023-11-23T03:20:22.969Z,-18.92
2023-11-23T03:22:51.355Z,-19.06
2023-11-23T03:25:19.982Z,-19.25
2023-11-23T03:27:48.371Z,-19.34
2023-11-23T03:30:18.556Z,-19.31
2023-11-23T03:32:48.110Z,-19.32
2023-11-23T03:35:16.694Z,-19.36
2023-11-23T03:37:45.086Z,-19.31
2023-11-23T03:40:14.673Z,-19.19
2023-11-23T03:42:43.219Z,-19.05
2023-11-23T03:45:12.397Z,-18.96
2023-11-23T03:47:40.811Z,-18.88
2023-11-23T03:50:09.749Z,-18.76
2023-11-23T03:52:38.202Z,-18.55
2023-11-23T03:55:06.939Z,-18.41
2023-11-23T03:57:36.147Z,-18.15
2023-11-23T04:00:05.033Z,-17.90
2023-11-23T04:02:34.682Z,-17.64
2023-11-23T04:05:03.328Z,-17.37
2023-11-23T04:07:32.486Z,-17.03
2023-11-23T04:10:01.011Z,-16.77
2023-11-23T04:12:30.450Z,-16.47
2023-11-23T04:14:59.370Z,-16.04
2023-11-23T04:17:27.729Z,-15.59
2023-11-23T04:19:56.750Z,-15.17
2023-11-23T04:22:25.280Z,-14.77
2023-11-23T04:24:53.949Z,-14.25
2023-11-23T04:27:22.341Z,-13.71
2023-11-23T04:29:50.740Z,-13.22
2023-11-23T04:32:19.224Z,-13.03
2023-11-23T04:34:48.506Z,-12.84
2023-11-23T04:37:17.554Z,-12.62
2023-11-23T04:39:45.853Z,-12.43
2023-11-23T04:42:14.379Z,-12.33
2023-11-23T04:44:42.845Z,-12.24
2023-11-23T04:47:11.143Z,-12.23
2023-11-23T04:49:40.213Z,-12.28
2023-11-23T04:52:08.572Z,-12.35
2023-11-23T04:54:37.105Z,-12.40
2023-11-23T04:57:05.788Z,-12.46
2023-11-23T04:59:35.160Z,-12.43
2023-11-23T05:02:04.454Z,-12.35
2023-11-23T05:04:33.453Z,-12.28
2023-11-23T05:07:01.826Z,-12.20
2023-11-23T05:09:30.236Z,-12.12
2023-11-23T05:12:00.038Z,-12.06
2023-11-23T05:14:28.421Z,-12.15
2023-11-23T05:16:56.809Z,-12.11
2023-11-23T05:19:35.927Z,-12.01
2023-11-23T05:22:11.737Z,-12.04
2023-11-23T05:24:40.587Z,-12.13
2023-11-23T05:27:09.038Z,-12.20
2023-11-23T05:29:38.334Z,-12.39
2023-11-23T05:32:06.955Z,-12.62
2023-11-23T05:34:35.343Z,-12.89
2023-11-23T05:37:04.366Z,-12.99
2023-11-23T05:39:34.030Z,-12.96
2023-11-23T05:42:03.048Z,-12.78
2023-11-23T05:44:32.070Z,-12.67
2023-11-23T05:47:01.379Z,-12.47
2023-11-23T05:49:30.341Z,-12.39
2023-11-23T05:51:58.738Z,-12.56
2023-11-23T05:54:27.807Z,-12.84
2023-11-23T05:56:56.221Z,-13.01
2023-11-23T05:59:24.677Z,-13.25
2023-11-23T06:01:54.362Z,-13.45
2023-11-23T06:04:23.936Z,-13.69
2023-11-23T06:06:53.337Z,-13.95
2023-11-23T06:09:21.805Z,-14.17
2023-11-23T06:11:51.550Z,-14.38
2023-11-23T06:14:19.921Z,-14.69
2023-11-23T06:16:48.346Z,-14.96
2023-11-23T06:19:16.685Z,-15.20
2023-11-23T06:21:45.193Z,-15.40
2023-11-23T06:24:14.035Z,-15.61
2023-11-23T06:26:43.267Z,-15.76
2023-11-23T06:29:12.758Z,-15.85
2023-11-23T06:31:41.267Z,-15.87
2023-11-23T06:34:09.745Z,-15.90
2023-11-23T06:36:46.351Z,-15.89
2023-11-23T06:39:25.514Z,-15.85
2023-11-23T06:41:54.347Z,-15.79
2023-11-23T06:44:23.091Z,-15.76
2023-11-23T06:46:52.114Z,-15.78
2023-11-23T06:49:21.348Z,-15.76
2023-11-23T06:51:50.284Z,-15.70
2023-11-23T06:54:18.715Z,-15.67
2023-11-23T06:56:47.143Z,-15.59
2023-11-23T06:59:16.300Z,-15.51
2023-11-23T07:01:45.928Z,-15.44
2023-11-23T07:04:15.348Z,-15.40
2023-11-23T07:06:44.369Z,-15.41
2023-11-23T07:09:15.555Z,-15.47
2023-11-23T07:11:43.990Z,-15.49
2023-11-23T07:14:12.427Z,-15.51
2023-11-23T07:16:41.999Z,-15.55
2023-11-23T07:19:10.450Z,-15.57
2023-11-23T07:21:38.924Z,-15.65
2023-11-23T07:24:07.821Z,-15.68
2023-11-23T07:26:36.767Z,-15.71
2023-11-23T07:29:05.100Z,-15.68
2023-11-23T07:31:33.610Z,-15.73
2023-11-23T07:34:02.140Z,-15.79
2023-11-23T07:36:32.018Z,-15.82
2023-11-23T07:39:00.770Z,-15.77
2023-11-23T07:41:29.716Z,-15.77
2023-11-23T07:43:59.644Z,-15.76
2023-11-23T07:46:28.157Z,-15.74
2023-11-23T07:48:56.645Z,-15.68
2023-11-23T07:51:25.881Z,-15.02
2023-11-23T07:53:55.055Z,-13.23
2023-11-23T07:56:24.156Z,-11.42
2023-11-23T07:58:52.595Z,-10.03
2023-11-23T08:01:22.051Z,-8.97
2023-11-23T08:03:50.777Z,-8.24
2023-11-23T08:06:20.599Z,-7.87
2023-11-23T08:08:49.469Z,-7.69
2023-11-23T08:11:18.967Z,-7.56
2023-11-23T08:13:48.739Z,-7.46
2023-11-23T08:16:17.514Z,-7.37
2023-11-23T08:18:50.148Z,-7.36
2023-11-23T08:21:19.190Z,-7.52
2023-11-23T08:23:48.079Z,-7.91
2023-11-23T08:26:17.717Z,-8.37
2023-11-23T08:28:46.202Z,-8.85
2023-11-23T08:31:14.654Z,-9.39
2023-11-23T08:33:43.119Z,-10.29
2023-11-23T08:36:12.075Z,-11.50
2023-11-23T08:38:40.510Z,-12.67
2023-11-23T08:41:10.082Z,-13.65
2023-11-23T08:43:40.870Z,-14.38
2023-11-23T08:46:09.912Z,-15.02
2023-11-23T08:48:38.388Z,-15.60
2023-11-23T08:51:07.817Z,-16.03
2023-11-23T08:53:36.768Z,-16.35
2023-11-23T08:56:05.362Z,-16.63
2023-11-23T08:58:34.808Z,-16.84
2023-11-23T09:01:04.325Z,-17.06
2023-11-23T09:03:34.476Z,-17.22
2023-11-23T09:06:05.399Z,-17.34
2023-11-23T09:08:35.530Z,-17.46
2023-11-23T09:11:04.051Z,-17.58
2023-11-23T09:13:34.182Z,-17.71
2023-11-23T09:16:03.706Z,-17.81
2023-11-23T09:18:32.455Z,-17.88
2023-11-23T09:21:02.078Z,-17.91
2023-11-23T09:23:30.496Z,-17.90
2023-11-23T09:26:01.384Z,-17.87
2023-11-23T09:28:30.280Z,-17.85
2023-11-23T09:30:58.643Z,-17.82
2023-11-23T09:33:28.389Z,-17.82
2023-11-23T09:35:57.044Z,-17.80
2023-11-23T09:38:26.873Z,-17.76
2023-11-23T09:41:00.485Z,-17.70
2023-11-23T09:43:31.461Z,-17.62
2023-11-23T09:46:00.078Z,-17.61
2023-11-23T09:48:30.199Z,-17.61
2023-11-23T09:50:58.701Z,-17.61
2023-11-23T09:53:28.072Z,-17.65
2023-11-23T09:55:57.791Z,-17.67
2023-11-23T09:58:26.550Z,-17.78
2023-11-23T10:00:56.446Z,-17.89
2023-11-23T10:03:26.912Z,-17.90
2023-11-23T10:05:55.316Z,-17.92
2023-11-23T10:08:23.782Z,-17.93
2023-11-23T10:10:53.363Z,-17.94
2023-11-23T10:13:21.794Z,-17.94
2023-11-23T10:15:50.869Z,-17.89
2023-11-23T10:18:21.223Z,-17.78
2023-11-23T10:20:50.972Z,-17.69
2023-11-23T10:23:22.642Z,-17.64
2023-11-23T10:25:51.308Z,-17.60
2023-11-23T10:28:21.149Z,-17.58
2023-11-23T10:30:50.976Z,-17.57
2023-11-23T10:33:21.233Z,-17.56
2023-11-23T10:35:52.217Z,-17.59
2023-11-23T10:38:32.426Z,-17.58
2023-11-23T10:41:10.774Z,-17.55
2023-11-23T10:43:39.676Z,-17.50
2023-11-23T10:46:09.968Z,-17.53
2023-11-23T10:48:39.847Z,-17.57
2023-11-23T10:51:08.724Z,-17.60
2023-11-23T10:53:41.944Z,-17.65
2023-11-23T10:56:18.295Z,-17.73
2023-11-23T10:58:48.343Z,-17.78
2023-11-23T11:01:23.522Z,-17.87
2023-11-23T11:03:52.552Z,-18.00
2023-11-23T11:06:23.470Z,-18.11
2023-11-23T11:08:51.950Z,-18.21
2023-11-23T11:11:24.427Z,-18.27
2023-11-23T11:14:06.489Z,-18.30
2023-11-23T11:16:40.941Z,-18.29
2023-11-23T11:19:10.098Z,-18.36
2023-11-23T11:21:45.978Z,-18.38
2023-11-23T11:24:26.085Z,-18.42
2023-11-23T11:27:02.892Z,-18.49
2023-11-23T11:29:34.858Z,-18.56
2023-11-23T11:32:09.740Z,-18.62
2023-11-23T11:34:41.392Z,-18.64
2023-11-23T11:37:11.627Z,-18.65
2023-11-23T11:39:41.522Z,-18.61
2023-11-23T11:42:12.786Z,-18.61
2023-11-23T11:44:45.068Z,-18.70
2023-11-23T11:47:16.295Z,-18.83
2023-11-23T11:49:44.868Z,-18.94
2023-11-23T11:52:16.124Z,-18.93
2023-11-23T11:54:44.786Z,-18.82
2023-11-23T11:57:13.722Z,-18.71
2023-11-23T11:59:43.242Z,-18.57
2023-11-23T12:02:13.025Z,-18.41
2023-11-23T12:04:44.273Z,-18.28
2023-11-23T12:07:18.426Z,-18.23
2023-11-23T12:09:54.761Z,-18.21
2023-11-23T12:12:24.596Z,-18.08
2023-11-23T12:14:53.162Z,-17.88
2023-11-23T12:17:22.021Z,-17.65
2023-11-23T12:19:56.385Z,-17.43
2023-11-23T12:22:28.185Z,-17.26
2023-11-23T12:24:58.025Z,-17.17
2023-11-23T12:27:29.532Z,-17.25
2023-11-23T12:29:57.947Z,-17.33
2023-11-23T12:32:26.464Z,-17.31
2023-11-23T12:34:56.053Z,-17.25
2023-11-23T12:37:24.617Z,-17.18
2023-11-23T12:39:56.268Z,-17.20
2023-11-23T12:42:24.975Z,-17.19
2023-11-23T12:44:53.354Z,-17.13
2023-11-23T12:47:27.638Z,-17.06
2023-11-23T12:49:56.454Z,-16.96
2023-11-23T12:52:24.820Z,-17.04
2023-11-23T12:54:53.235Z,-17.21
2023-11-23T12:57:21.808Z,-17.35
2023-11-23T12:59:50.207Z,-17.53
2023-11-23T13:02:19.444Z,-17.65
2023-11-23T13:04:48.179Z,-17.82
2023-11-23T13:07:18.575Z,-18.01
2023-11-23T13:09:50.283Z,-18.11
2023-11-23T13:12:19.796Z,-18.21
2023-11-23T13:14:51.034Z,-18.28
2023-11-23T13:17:22.842Z,-18.28
2023-11-23T13:19:52.749Z,-18.22
2023-11-23T13:22:21.488Z,-18.13
2023-11-23T13:24:49.981Z,-18.20
2023-11-23T13:27:20.421Z,-18.28
2023-11-23T13:29:49.773Z,-18.30
2023-11-23T13:32:20.974Z,-18.33
2023-11-23T13:34:51.132Z,-18.39
2023-11-23T13:37:21.877Z,-18.47
2023-11-23T13:39:50.636Z,-18.53
2023-11-23T13:42:20.572Z,-18.56
2023-11-23T13:44:49.122Z,-18.57
2023-11-23T13:47:17.520Z,-18.58
2023-11-23T13:49:45.975Z,-18.59
2023-11-23T13:52:18.918Z,-18.53
2023-11-23T13:54:48.967Z,-18.50
2023-11-23T13:57:17.678Z,-18.49
2023-11-23T13:59:46.524Z,-18.49
2023-11-23T14:02:18.180Z,-18.55
2023-11-23T14:04:50.457Z,-18.61
2023-11-23T14:07:19.050Z,-18.60
2023-11-23T14:09:47.674Z,-18.47
2023-11-23T14:12:16.186Z,-18.29
2023-11-23T14:14:46.472Z,-18.06
2023-11-23T14:17:15.366Z,-17.76
2023-11-23T14:19:43.776Z,-17.48
2023-11-23T14:22:12.445Z,-17.37
2023-11-23T14:24:41.072Z,-17.29
2023-11-23T14:27:10.381Z,-17.23
2023-11-23T14:29:39.360Z,-17.12
2023-11-23T14:32:07.902Z,-17.05
2023-11-23T14:34:45.622Z,-16.95
2023-11-23T14:37:15.142Z,-16.87
2023-11-23T14:39:46.406Z,-16.82
2023-11-23T14:42:14.981Z,-16.79
2023-11-23T14:44:45.792Z,-16.75
2023-11-23T14:47:15.623Z,-16.71
2023-11-23T14:49:44.110Z,-16.69
2023-11-23T14:52:12.563Z,-16.72
2023-11-23T14:54:41.163Z,-16.68
2023-11-23T14:57:09.736Z,-16.63
2023-11-23T14:59:38.365Z,-16.62
2023-11-23T15:02:08.536Z,-16.58
2023-11-23T15:04:37.476Z,-16.58
2023-11-23T15:07:06.120Z,-16.52
2023-11-23T15:09:34.656Z,-16.53
2023-11-23T15:12:04.355Z,-16.56
2023-11-23T15:14:33.196Z,-16.56
2023-11-23T15:17:02.649Z,-16.55
2023-11-23T15:19:36.042Z,-16.60
2023-11-23T15:22:07.618Z,-16.65
2023-11-23T15:24:36.968Z,-16.70
2023-11-23T15:27:06.742Z,-16.68
2023-11-23T15:29:35.872Z,-16.64
2023-11-23T15:32:05.272Z,-16.58
2023-11-23T15:34:33.787Z,-16.53
2023-11-23T15:37:02.230Z,-16.49
2023-11-23T15:39:30.934Z,-16.44
2023-11-23T15:41:59.411Z,-16.46
2023-11-23T15:44:29.201Z,-16.48
2023-11-23T15:46:57.716Z,-16.50
2023-11-23T15:49:28.470Z,-16.50
2023-11-23T15:51:57.014Z,-16.49
2023-11-23T15:54:28.426Z,-16.49
2023-11-23T15:56:56.843Z,-16.48
2023-11-23T15:59:26.338Z,-16.47
2023-11-23T16:01:55.841Z,-16.47
2023-11-23T16:04:24.956Z,-16.44
2023-11-23T16:06:54.127Z,-16.39
2023-11-23T16:09:24.601Z,-16.37
2023-11-23T16:11:53.217Z,-16.34
2023-11-23T16:14:23.066Z,-16.32
2023-11-23T16:16:52.474Z,-16.35
2023-11-23T16:19:21.624Z,-16.34
2023-11-23T16:21:51.584Z,-16.33
2023-11-23T16:24:22.296Z,-16.34
2023-11-23T16:26:51.219Z,-16.32
2023-11-23T16:29:19.573Z,-16.30
2023-11-23T16:31:48.496Z,-16.30
2023-11-23T16:34:18.478Z,-16.34
2023-11-23T16:36:47.362Z,-16.30
2023-11-23T16:39:17.127Z,-16.22
2023-11-23T16:41:45.716Z,-16.13
2023-11-23T16:44:16.266Z,-16.01
2023-11-23T16:46:46.033Z,-15.95
2023-11-23T16:49:14.762Z,-15.93
2023-11-23T16:51:43.160Z,-15.89
2023-11-23T16:54:11.875Z,-15.85
2023-11-23T16:56:40.694Z,-15.83
2023-11-23T16:59:11.735Z,-15.82
2023-11-23T17:01:41.915Z,-15.80
2023-11-23T17:04:11.877Z,-15.79
2023-11-23T17:06:43.422Z,-15.80
2023-11-23T17:09:12.039Z,-15.71
2023-11-23T17:11:40.737Z,-15.66
2023-11-23T17:14:12.501Z,-15.64
2023-11-23T17:16:41.424Z,-15.61
2023-11-23T17:19:09.973Z,-15.65
2023-11-23T17:21:38.534Z,-15.61
2023-11-23T17:24:07.654Z,-15.57
2023-11-23T17:26:36.190Z,-15.59
2023-11-23T17:29:04.854Z,-15.64
2023-11-23T17:31:35.038Z,-15.71
2023-11-23T17:34:03.541Z,-15.74
2023-11-23T17:36:32.111Z,-15.73
2023-11-23T17:39:03.666Z,-15.70
2023-11-23T17:41:33.727Z,-15.70
2023-11-23T17:44:02.127Z,-15.71
2023-11-23T17:46:30.645Z,-15.67
2023-11-23T17:49:00.011Z,-15.65
2023-11-23T17:51:28.524Z,-15.60
2023-11-23T17:53:56.960Z,-15.54
2023-11-23T17:56:25.426Z,-15.53
2023-11-23T17:59:01.259Z,-15.54
2023-11-23T18:01:38.121Z,-15.54
2023-11-23T18:04:06.881Z,-15.55
2023-11-23T18:06:35.411Z,-15.54
2023-11-23T18:09:08.742Z,-15.51
2023-11-23T18:11:38.787Z,-15.49
2023-11-23T18:14:07.114Z,-15.49
2023-11-23T18:16:36.130Z,-15.48
2023-11-23T18:19:04.692Z,-15.46
2023-11-23T18:21:34.018Z,-15.44
2023-11-23T18:24:02.465Z,-15.53
2023-11-23T18:26:30.869Z,-15.61
2023-11-23T18:28:59.805Z,-15.67
2023-11-23T18:31:28.581Z,-15.72
2023-11-23T18:33:57.107Z,-15.74
2023-11-23T18:36:26.913Z,-15.74
2023-11-23T18:38:55.381Z,-15.70
2023-11-23T18:41:23.772Z,-15.67
2023-11-23T18:43:53.183Z,-15.65
2023-11-23T18:46:22.080Z,-15.64
2023-11-23T18:48:50.643Z,-15.67
2023-11-23T18:51:20.293Z,-15.69
2023-11-23T18:53:48.753Z,-15.66
2023-11-23T18:56:17.197Z,-15.59
2023-11-23T18:58:46.871Z,-15.56
2023-11-23T19:01:17.350Z,-15.55
2023-11-23T19:03:47.341Z,-15.54
2023-11-23T19:06:17.560Z,-15.51
2023-11-23T19:08:47.083Z,-15.49
2023-11-23T19:11:15.554Z,-15.49
2023-11-23T19:13:43.931Z,-15.52
2023-11-23T19:16:12.390Z,-15.52
2023-11-23T19:18:43.532Z,-15.53
2023-11-23T19:21:14.307Z,-15.56
2023-11-23T19:23:43.098Z,-15.64
2023-11-23T19:26:11.703Z,-15.67
2023-11-23T19:28:42.349Z,-15.66
2023-11-23T19:31:14.554Z,-15.70
2023-11-23T19:33:43.685Z,-15.78
2023-11-23T19:36:12.768Z,-15.87
2023-11-23T19:38:41.608Z,-15.92
2023-11-23T19:41:10.791Z,-15.96
2023-11-23T19:43:39.857Z,-15.99
2023-11-23T19:46:10.230Z,-16.00
2023-11-23T19:48:39.254Z,-15.96
2023-11-23T19:51:08.356Z,-15.96
2023-11-23T19:53:42.503Z,-16.04
2023-11-23T19:56:10.885Z,-16.07
2023-11-23T19:58:39.217Z,-16.08
2023-11-23T20:01:09.136Z,-16.07
2023-11-23T20:03:37.796Z,-16.10
2023-11-23T20:06:07.313Z,-16.12
2023-11-23T20:08:35.770Z,-16.18
2023-11-23T20:11:04.232Z,-16.23
2023-11-23T20:13:32.689Z,-16.34
2023-11-23T20:16:02.216Z,-16.42
2023-11-23T20:18:31.056Z,-16.51
2023-11-23T20:20:59.604Z,-16.55
2023-11-23T20:23:28.162Z,-16.64
2023-11-23T20:25:56.569Z,-16.73
2023-11-23T20:28:25.111Z,-16.83
2023-11-23T20:30:53.657Z,-16.95
2023-11-23T20:33:22.534Z,-17.06
2023-11-23T20:35:50.996Z,-17.19
2023-11-23T20:38:19.463Z,-17.25
2023-11-23T20:40:47.824Z,-17.27
2023-11-23T20:43:16.364Z,-17.26
2023-11-23T20:45:44.692Z,-17.25
2023-11-23T20:48:13.231Z,-17.24
2023-11-23T20:50:42.212Z,-17.23
2023-11-23T20:53:10.627Z,-17.27
2023-11-23T20:55:39.368Z,-17.33
2023-11-23T20:58:07.881Z,-17.35
2023-11-23T21:00:37.306Z,-17.31
2023-11-23T21:03:06.210Z,-17.23
2023-11-23T21:05:35.361Z,-17.17
2023-11-23T21:08:04.830Z,-17.06
2023-11-23T21:10:34.261Z,-16.95
2023-11-23T21:13:02.795Z,-16.85
2023-11-23T21:15:31.875Z,-16.70
2023-11-23T21:18:00.384Z,-16.58
2023-11-23T21:20:29.806Z,-16.46
2023-11-23T21:22:58.247Z,-16.37
2023-11-23T21:25:26.668Z,-16.27
2023-11-23T21:27:55.108Z,-16.19
2023-11-23T21:30:23.562Z,-16.13
2023-11-23T21:32:51.963Z,-16.10
2023-11-23T21:35:23.220Z,-16.10
2023-11-23T21:37:51.935Z,-16.12
2023-11-23T21:40:21.589Z,-16.08
2023-11-23T21:42:49.962Z,-16.01
2023-11-23T21:45:18.551Z,-16.04
2023-11-23T21:47:47.161Z,-16.03
2023-11-23T21:50:15.545Z,-15.96
2023-11-23T21:52:44.614Z,-15.89
2023-11-23T21:55:13.183Z,-15.83
2023-11-23T21:57:42.777Z,-15.82
2023-11-23T22:00:13.667Z,-15.82
2023-11-23T22:02:43.656Z,-15.80
2023-11-23T22:05:13.103Z,-15.81
2023-11-23T22:07:41.864Z,-15.85
2023-11-23T22:10:10.332Z,-15.81
2023-11-23T22:12:39.012Z,-15.79
2023-11-23T22:15:08.543Z,-15.85
2023-11-23T22:17:37.183Z,-15.88
2023-11-23T22:20:06.694Z,-15.82
2023-11-23T22:22:36.126Z,-15.85
2023-11-23T22:25:05.732Z,-15.93
2023-11-23T22:27:34.979Z,-16.03
2023-11-23T22:30:03.590Z,-16.07
2023-11-23T22:32:32.873Z,-16.12
2023-11-23T22:35:01.495Z,-16.20
2023-11-23T22:37:31.960Z,-16.26
2023-11-23T22:40:00.497Z,-16.27
2023-11-23T22:42:29.453Z,-16.25
2023-11-23T22:44:58.063Z,-16.28
2023-11-23T22:47:26.511Z,-16.35
2023-11-23T22:49:55.398Z,-16.44
2023-11-23T22:52:24.598Z,-16.51
2023-11-23T22:54:53.021Z,-16.55
2023-11-23T22:57:21.456Z,-16.59
2023-11-23T22:59:50.042Z,-16.62
2023-11-23T23:02:20.010Z,-16.65
2023-11-23T23:04:48.713Z,-16.66
2023-11-23T23:07:17.363Z,-16.75
2023-11-23T23:09:47.929Z,-16.77
2023-11-23T23:12:16.342Z,-16.80
2023-11-23T23:14:45.456Z,-16.75
2023-11-23T23:17:14.842Z,-16.73
2023-11-23T23:19:43.260Z,-16.79
2023-11-23T23:22:23.922Z,-16.81
2023-11-23T23:24:55.659Z,-16.84
2023-11-23T23:27:24.174Z,-16.83
2023-11-23T23:29:52.602Z,-16.85
2023-11-23T23:32:23.567Z,-16.83
2023-11-23T23:34:52.802Z,-16.85
2023-11-23T23:37:21.791Z,-16.89
2023-11-23T23:39:50.290Z,-16.98
2023-11-23T23:42:18.989Z,-17.16
2023-11-23T23:44:47.486Z,-17.33
2023-11-23T23:47:16.547Z,-17.42
2023-11-23T23:49:45.090Z,-17.45
2023-11-23T23:52:13.542Z,-17.53
2023-11-23T23:54:43.434Z,-17.58
2023-11-23T23:57:11.808Z,-17.61
2023-11-23T23:59:40.279Z,-17.59
